createdAt,value
2017-03-11T00:04:55.419Z,1015.8
2017-03-11T00:15:06.547Z,1015.8
2017-03-11T00:25:17.745Z,1015.6
2017-03-11T00:35:28.972Z,1015.6
2017-03-11T00:45:40.147Z,1015.7
2017-03-11T00:55:51.387Z,1015.8
2017-03-11T01:06:02.656Z,1015.7
2017-03-11T01:16:13.867Z,1015.4
2017-03-11T01:26:25.213Z,1015.1
2017-03-11T01:36:36.285Z,1014.8
2017-03-11T01:46:47.395Z,1014.9
2017-03-11T01:56:58.602Z,1014.7
2017-03-11T02:07:09.872Z,1014.7
2017-03-11T02:17:21.048Z,1014.7
2017-03-11T02:27:32.322Z,1014.5
2017-03-11T02:37:43.457Z,1014.5
2017-03-11T02:47:54.653Z,1014.4
2017-03-11T02:58:05.764Z,1014.2
2017-03-11T03:08:17.057Z,1014.1
2017-03-11T03:18:28.434Z,1014.2
2017-03-11T03:28:40.054Z,1014.2
2017-03-11T03:38:51.051Z,1014.2
2017-03-11T03:49:02.370Z,1014.1
2017-03-11T03:59:13.677Z,1014
2017-03-11T04:09:24.933Z,1014
2017-03-11T04:19:36.591Z,1013.9
2017-03-11T04:29:47.590Z,1013.8
2017-03-11T04:39:59.027Z,1013.8
2017-03-11T04:50:10.312Z,1013.7
2017-03-11T05:00:21.682Z,1013.5
2017-03-11T05:10:33.064Z,1013.4
2017-03-11T05:20:44.263Z,1013.4
2017-03-11T05:30:55.579Z,1013.2
2017-03-11T05:41:06.920Z,1013.2
2017-03-11T05:51:18.296Z,1013.2
2017-03-11T06:01:29.712Z,1013.3
2017-03-11T06:11:41.201Z,1013.2
2017-03-11T06:21:52.568Z,1013.2
2017-03-11T06:32:04.004Z,1013.4
2017-03-11T06:42:15.206Z,1013.3
2017-03-11T06:52:26.354Z,1013.2
2017-03-11T07:02:37.393Z,1013.3
2017-03-11T07:12:48.489Z,1013.3
2017-03-11T07:22:59.375Z,1013.1
2017-03-11T07:33:09.714Z,1013.1
2017-03-11T07:43:20.082Z,1013.1
2017-03-11T07:53:30.116Z,1013
2017-03-11T08:03:40.181Z,1013.1
2017-03-11T08:13:49.952Z,1013.3
2017-03-11T08:23:59.668Z,1013.3
2017-03-11T08:34:09.406Z,1013.2
2017-03-11T08:44:18.773Z,1013.2
2017-03-11T08:54:28.123Z,1013.2
2017-03-11T09:04:37.396Z,1013.2
2017-03-11T09:14:46.531Z,1013.2
2017-03-11T09:24:55.596Z,1013.1
2017-03-11T09:35:04.886Z,1013.1
2017-03-11T09:45:13.760Z,1013
2017-03-11T09:55:22.392Z,1012.8
2017-03-11T10:05:31.238Z,1012.7
2017-03-11T10:15:40.551Z,1012.7
2017-03-11T10:25:49.176Z,1012.7
2017-03-11T10:35:58.051Z,1012.8
2017-03-11T10:46:06.866Z,1012.9
2017-03-11T10:56:15.604Z,1013.1
2017-03-11T11:06:24.330Z,1013.3
2017-03-11T11:16:32.998Z,1014
2017-03-11T11:26:41.621Z,1013.4
2017-03-11T11:36:50.403Z,1012.3
2017-03-11T11:46:59.063Z,1012.3
2017-03-11T11:57:07.680Z,1012
2017-03-11T12:07:16.166Z,1012.1
2017-03-11T12:17:24.740Z,1011.9
2017-03-11T12:27:33.376Z,1011.8
2017-03-11T12:37:42.220Z,1011.7
2017-03-11T12:47:51.142Z,1011.5
2017-03-11T12:58:00.119Z,1011.5
2017-03-11T13:08:08.801Z,1011.4
2017-03-11T13:18:17.340Z,1011.4
2017-03-11T13:28:25.922Z,1011.3
2017-03-11T13:38:34.784Z,1011.5
2017-03-11T13:48:43.466Z,1011.5
2017-03-11T13:58:52.129Z,1011.1
2017-03-11T14:09:00.884Z,1011.1
2017-03-11T14:19:09.966Z,1010.9
2017-03-11T14:29:18.518Z,1010.9
2017-03-11T14:39:27.403Z,1010.8
2017-03-11T14:49:36.170Z,1010.7
2017-03-11T14:59:45.152Z,1010.7
2017-03-11T15:09:54.221Z,1010.7
2017-03-11T15:20:03.539Z,1010.6
2017-03-11T15:30:12.710Z,1010.5
2017-03-11T15:40:21.945Z,1010.4
2017-03-11T15:50:31.072Z,1010.3
2017-03-11T16:00:40.331Z,1010.2
2017-03-11T16:10:49.816Z,1010.3
2017-03-11T16:20:59.477Z,1010.1
2017-03-11T16:31:09.166Z,1010.1
2017-03-11T16:41:18.951Z,1010.1
2017-03-11T16:51:29.032Z,1010.1
2017-03-11T17:01:38.756Z,1010.1
2017-03-11T17:11:48.831Z,1010.1
2017-03-11T17:21:58.907Z,1010.1
2017-03-11T17:32:09.246Z,1010.2
2017-03-11T17:42:19.542Z,1010.3
2017-03-11T17:52:29.839Z,1010.5
2017-03-11T18:02:40.186Z,1010.5
2017-03-11T18:12:50.587Z,1010.5
2017-03-11T18:23:01.419Z,1010.4
2017-03-11T18:33:11.564Z,1010.4
2017-03-11T18:43:22.127Z,1010.4
2017-03-11T18:53:32.723Z,1010.3
2017-03-11T19:03:43.223Z,1010.3
2017-03-11T19:13:53.866Z,1010.2
2017-03-11T19:24:04.451Z,1010.2
2017-03-11T19:34:15.055Z,1010
2017-03-11T19:44:27.866Z,1010
2017-03-11T19:54:36.336Z,1010
2017-03-11T20:04:47.065Z,1010
2017-03-11T20:14:57.799Z,1009.9
2017-03-11T20:25:08.373Z,1009.9
2017-03-11T20:35:19.085Z,1009.7
2017-03-11T20:45:29.774Z,1009.7
2017-03-11T20:55:40.451Z,1009.6
2017-03-11T21:05:51.298Z,1009.6
2017-03-11T21:16:02.077Z,1009.5
2017-03-11T21:26:12.986Z,1009.4
2017-03-11T21:36:23.928Z,1009.5
2017-03-11T21:46:34.743Z,1009.5
2017-03-11T21:56:45.498Z,1009.5
2017-03-11T22:06:56.451Z,1009.5
2017-03-11T22:17:07.349Z,1009.5
2017-03-11T22:27:18.280Z,1009.5
2017-03-11T22:37:29.182Z,1009.4
2017-03-11T22:47:40.175Z,1009.2
2017-03-11T22:57:51.161Z,1009.2
2017-03-11T23:08:01.950Z,1009.1
2017-03-11T23:18:12.921Z,1009.1
2017-03-11T23:28:23.901Z,1009
2017-03-11T23:38:34.868Z,1008.9
2017-03-11T23:48:45.874Z,1008.9
2017-03-11T23:58:56.875Z,1008.8
